WetterOnline ( https://www.wetteronline.at )

Wetter aktuell Halle (Saale)

Aktuelles Wetter: Leipzig/Halle (136m)

6-stündlich | Neueste Meldungen
Ortszeit Temperatur Wetter
Di, 10.12. 7:00 2.3° C wolkig
Di, 10.12. 1:00 4.7° C leicht bewölkt
Mo, 09.12. 19:00 6.3° C bewölkt
Mo, 09.12. 13:00 9.2° C wolkig
Mo, 09.12. 7:00 6.8° C leichte Schauer
Mo, 09.12. 1:00 7.7° C wolkig
So, 08.12. 19:00 11.0° C leichter Regen
So, 08.12. 13:00 10.4° C bewölkt
Ortszeit Temperatur Wetter
Di, 10.12. 10:50 5° C -
Di, 10.12. 10:30 3.0° C bewölkt
Di, 10.12. 10:20 3.0° C bewölkt
Di, 10.12. 10:10 3.0° C bedeckt
Di, 10.12. 10:00 2.5° C wolkig
Di, 10.12. 9:50 2.5° C bedeckt
Di, 10.12. 9:30 2.1° C bewölkt
Di, 10.12. 9:00 1.1° C fast wolkenlos
Di, 10.12. 8:30 0.3° C wolkenlos
Di, 10.12. 8:00 0.8° C leicht bewölkt
Di, 10.12. 7:30 2.1° C bewölkt
Ortszeit Relative Feuchte Sichtweite
Di, 10.12. 7:00 87% 30 km
Di, 10.12. 1:00 81% 25 km
Mo, 09.12. 19:00 84% 70 km
Mo, 09.12. 13:00 64% >70 km
Mo, 09.12. 7:00 76% 50 km
Mo, 09.12. 1:00 73% 55 km
So, 08.12. 19:00 74% 70 km
So, 08.12. 13:00 67% 70 km
Ortszeit Relative Feuchte Sichtweite
Di, 10.12. 10:50 81% >10 km
Di, 10.12. 10:30 87% 25 km
Di, 10.12. 10:20 87% -
Di, 10.12. 10:10 87% -
Di, 10.12. 10:00 89% 30 km
Di, 10.12. 9:50 89% -
Di, 10.12. 9:30 90% 22 km
Di, 10.12. 9:00 92% 20 km
Di, 10.12. 8:30 94% 19 km
Di, 10.12. 8:00 91% 20 km
Di, 10.12. 7:30 87% 25 km
Ortszeit Niederschlagsmenge Niederschlagsart
Di, 10.12. 7:00 0.5 l/m2 in 12 Std. -
Di, 10.12. 1:00 0.5 l/m2 in 6 Std. Schauer
Mo, 09.12. 19:00 0.1 l/m2 in 12 Std. Regenschauer
Mo, 09.12. 13:00 0.1 l/m2 in 6 Std. Schauer
Mo, 09.12. 7:00 1 l/m2 in 12 Std. -
Mo, 09.12. 1:00 1 l/m2 in 6 Std. Regenschauer
So, 08.12. 19:00 0.1 l/m2 in 12 Std. Regen
So, 08.12. 13:00 0.0 l/m2 in 6 Std. -
Ortszeit Niederschlagsmenge Niederschlagsart
Di, 10.12. 10:50 keine Meldung -
Di, 10.12. 10:30 0.0 l/m2 in 1 Std. -
Di, 10.12. 10:20 keine Meldung -
Di, 10.12. 10:10 keine Meldung -
Di, 10.12. 10:00 0.0 l/m2 in 1 Std. -
Di, 10.12. 9:50 keine Meldung -
Di, 10.12. 9:30 0.0 l/m2 in 1 Std. -
Di, 10.12. 9:00 0.0 l/m2 in 1 Std. -
Di, 10.12. 8:30 0.0 l/m2 in 1 Std. -
Di, 10.12. 8:00 0.0 l/m2 in 1 Std. -
Di, 10.12. 7:30 0.0 l/m2 in 1 Std. -
Ortszeit Stärke Spitze Richtung
km/h Bft. km/h Grad Sektor
Di, 10.12. 7:00 14 3 43 260° W
Di, 10.12. 1:00 22 4 43 290° W
Mo, 09.12. 19:00 22 4 48 260° W
Mo, 09.12. 13:00 31 5 48 230° SW
Mo, 09.12. 7:00 22 4 54 210° SW
Mo, 09.12. 1:00 22 4 61 210° SW
So, 08.12. 19:00 33 5 61 220° SW
So, 08.12. 13:00 41 6 67 220° SW
Ortszeit Stärke Spitze Richtung
km/h Bft. km/h Grad Sektor
Di, 10.12. 10:50 19 3 - 250° W
Di, 10.12. 10:30 14 3 18 260° W
Di, 10.12. 10:20 14 3 - 260° W
Di, 10.12. 10:10 14 3 - 260° W
Di, 10.12. 10:00 14 3 25 250° W
Di, 10.12. 9:50 14 3 - 250° W
Di, 10.12. 9:30 14 3 25 260° W
Di, 10.12. 9:00 20 4 26 260° W
Di, 10.12. 8:30 14 3 22 250° W
Di, 10.12. 8:00 19 3 28 260° W
Di, 10.12. 7:30 17 3 28 270° W
Ortszeit Untergrenze Bedeckung Gattung
total tief tief mittel hoch
Di, 10.12. 7:00 990 m 6/8 6/8 Sc - -
Di, 10.12. 1:00 600 m 6/8 1/8 Cu As Ci
Mo, 09.12. 19:00 660 m 7/8 7/8 Cu - -
Mo, 09.12. 13:00 1050 m 7/8 6/8 Cu Ac -
Mo, 09.12. 7:00 1200 m 7/8 7/8 Cb - -
Mo, 09.12. 1:00 1320 m 7/8 4/8 Sc As Ci
So, 08.12. 19:00 780 m 7/8 7/8 Sc - -
So, 08.12. 13:00 600 m 8/8 5/8 Cu As Ci
Ortszeit Bedeckungsgrad in Achtel und Wolkenuntergrenze
Di, 10.12. 10:50 keine Wolken(unter 1500 m)
Di, 10.12. 10:30 7(1800m)
Di, 10.12. 10:20 7(1800m)
Di, 10.12. 10:10 8(1800m)
Di, 10.12. 10:00 6(2100m)
Di, 10.12. 9:50 8(1800m)
Di, 10.12. 9:30 7(1800m)
Di, 10.12. 9:00 1(1500m)
Di, 10.12. 8:30 keine Wolken
Di, 10.12. 8:00 2(1380m)
Di, 10.12. 7:30 7(1350m)
Ortszeit Luftdruck NN (hPa) Tendenz (hPa in 3 Std.)
Di, 10.12. 7:00 1021 + 3,5
Di, 10.12. 1:00 1014 + 5,1
Mo, 09.12. 19:00 1004 + 3,7
Mo, 09.12. 13:00 999 - 1,1
Mo, 09.12. 7:00 1000 + 0,3
Mo, 09.12. 1:00 1000 + 0,1
So, 08.12. 19:00 1000 - 1,4
So, 08.12. 13:00 1002 - 3,4
Ortszeit Luftdruck NN (hPa) Tendenz (hPa in 3 Std.)
Di, 10.12. 10:50 1024 keine Meldung
Di, 10.12. 10:30 1025 + 2,8
Di, 10.12. 10:20 1025 keine Meldung
Di, 10.12. 10:10 1025 keine Meldung
Di, 10.12. 10:00 1025 + 3,2
Di, 10.12. 9:50 1025 keine Meldung
Di, 10.12. 9:30 1024 + 3,2
Di, 10.12. 9:00 1024 + 3,1
Di, 10.12. 8:30 1023 + 3,1
Di, 10.12. 8:00 1023 + 3,4
Di, 10.12. 7:30 1022 + 3,5
Ortszeit Schneehöhe (cm)
Di, 10.12. 7:00 0
Di, 10.12. 1:00 0
Mo, 09.12. 19:00 0
Mo, 09.12. 13:00 0
Mo, 09.12. 7:00 0
Mo, 09.12. 1:00 0
So, 08.12. 19:00 0
So, 08.12. 13:00 0
Ortszeit Schneehöhe (cm)
Di, 10.12. 10:50 -
Di, 10.12. 10:30 0
Di, 10.12. 10:20 0
Di, 10.12. 10:10 0
Di, 10.12. 10:00 0
Di, 10.12. 9:50 0
Di, 10.12. 9:30 0
Di, 10.12. 9:00 0
Di, 10.12. 8:30 0
Di, 10.12. 8:00 0
Di, 10.12. 7:30 0
Link zu dieser Seite / Seite empfehlen

Das Wetter in ...